sensor_id;sensor_type;location;lat;lon;timestamp;pressure;altitude;pressure_sealevel;temperature;humidity
52535;BME280;38443;53.164;5.802;2023-12-22T00:02:16;100014.25;;;4.65;100.00
52535;BME280;38443;53.164;5.802;2023-12-22T00:04:42;99998.66;;;4.49;100.00
52535;BME280;38443;53.164;5.802;2023-12-22T00:07:07;100004.84;;;4.48;100.00
52535;BME280;38443;53.164;5.802;2023-12-22T00:09:32;99974.97;;;4.40;100.00
52535;BME280;38443;53.164;5.802;2023-12-22T00:11:58;99984.63;;;4.43;100.00
52535;BME280;38443;53.164;5.802;2023-12-22T00:14:23;99964.47;;;4.35;100.00
52535;BME280;38443;53.164;5.802;2023-12-22T00:16:48;99953.88;;;4.34;100.00
52535;BME280;38443;53.164;5.802;2023-12-22T00:19:14;99986.41;;;4.42;100.00
52535;BME280;38443;53.164;5.802;2023-12-22T00:21:39;99989.63;;;4.59;100.00
52535;BME280;38443;53.164;5.802;2023-12-22T00:24:04;99984.00;;;4.75;100.00
52535;BME280;38443;53.164;5.802;2023-12-22T00:26:30;99982.00;;;4.88;100.00
52535;BME280;38443;53.164;5.802;2023-12-22T00:28:55;99972.84;;;5.04;100.00
52535;BME280;38443;53.164;5.802;2023-12-22T00:31:20;99987.34;;;5.30;100.00
52535;BME280;38443;53.164;5.802;2023-12-22T00:33:45;99985.50;;;5.33;100.00
52535;BME280;38443;53.164;5.802;2023-12-22T00:36:11;99983.81;;;5.29;100.00
52535;BME280;38443;53.164;5.802;2023-12-22T00:38:37;99982.06;;;5.27;100.00
52535;BME280;38443;53.164;5.802;2023-12-22T00:41:02;99989.19;;;5.26;100.00
52535;BME280;38443;53.164;5.802;2023-12-22T00:43:27;99984.72;;;5.27;100.00
52535;BME280;38443;53.164;5.802;2023-12-22T00:45:53;99978.09;;;5.07;100.00
52535;BME280;38443;53.164;5.802;2023-12-22T00:48:18;99988.78;;;5.01;100.00
52535;BME280;38443;53.164;5.802;2023-12-22T00:50:43;99997.66;;;5.02;100.00
52535;BME280;38443;53.164;5.802;2023-12-22T00:53:08;100017.66;;;5.16;100.00
52535;BME280;38443;53.164;5.802;2023-12-22T00:55:34;100002.94;;;5.02;100.00
52535;BME280;38443;53.164;5.802;2023-12-22T00:57:59;100003.28;;;4.85;100.00
52535;BME280;38443;53.164;5.802;2023-12-22T01:00:24;100023.72;;;4.78;100.00
52535;BME280;38443;53.164;5.802;2023-12-22T01:02:49;100018.53;;;4.73;100.00
52535;BME280;38443;53.164;5.802;2023-12-22T01:05:15;100011.59;;;4.65;100.00
52535;BME280;38443;53.164;5.802;2023-12-22T01:07:40;100017.88;;;4.59;100.00
52535;BME280;38443;53.164;5.802;2023-12-22T01:10:05;100023.28;;;4.54;100.00
52535;BME280;38443;53.164;5.802;2023-12-22T01:12:31;100028.66;;;4.51;100.00
52535;BME280;38443;53.164;5.802;2023-12-22T01:14:56;100025.16;;;4.49;100.00
52535;BME280;38443;53.164;5.802;2023-12-22T01:17:22;100032.91;;;4.60;100.00
52535;BME280;38443;53.164;5.802;2023-12-22T01:19:47;100029.19;;;4.69;100.00
52535;BME280;38443;53.164;5.802;2023-12-22T01:22:12;100037.97;;;4.72;100.00
52535;BME280;38443;53.164;5.802;2023-12-22T01:24:38;100029.97;;;4.75;100.00
52535;BME280;38443;53.164;5.802;2023-12-22T01:27:06;100036.06;;;4.80;100.00
52535;BME280;38443;53.164;5.802;2023-12-22T01:29:31;100036.06;;;4.80;100.00
52535;BME280;38443;53.164;5.802;2023-12-22T01:31:57;100047.53;;;4.81;100.00
52535;BME280;38443;53.164;5.802;2023-12-22T01:34:22;100033.25;;;4.88;100.00
52535;BME280;38443;53.164;5.802;2023-12-22T01:36:47;100023.50;;;4.90;100.00
52535;BME280;38443;53.164;5.802;2023-12-22T01:39:13;100029.41;;;5.03;100.00
52535;BME280;38443;53.164;5.802;2023-12-22T01:41:38;99999.25;;;5.09;100.00
52535;BME280;38443;53.164;5.802;2023-12-22T01:44:03;100026.56;;;5.14;100.00
52535;BME280;38443;53.164;5.802;2023-12-22T01:46:28;100027.47;;;5.13;100.00
52535;BME280;38443;53.164;5.802;2023-12-22T01:48:54;100047.59;;;5.23;100.00
52535;BME280;38443;53.164;5.802;2023-12-22T01:51:19;100033.31;;;5.29;100.00
52535;BME280;38443;53.164;5.802;2023-12-22T01:53:45;100059.78;;;5.33;100.00
52535;BME280;38443;53.164;5.802;2023-12-22T01:56:11;100063.31;;;5.34;100.00
52535;BME280;38443;53.164;5.802;2023-12-22T01:58:36;100057.44;;;5.18;100.00
52535;BME280;38443;53.164;5.802;2023-12-22T02:01:02;100042.00;;;4.93;100.00
52535;BME280;38443;53.164;5.802;2023-12-22T02:03:28;100049.44;;;4.73;100.00
52535;BME280;38443;53.164;5.802;2023-12-22T02:05:54;100046.13;;;4.62;100.00
52535;BME280;38443;53.164;5.802;2023-12-22T02:08:20;100043.47;;;4.63;100.00
52535;BME280;38443;53.164;5.802;2023-12-22T02:10:46;100036.41;;;4.62;100.00
52535;BME280;38443;53.164;5.802;2023-12-22T02:13:12;100058.41;;;4.67;100.00
52535;BME280;38443;53.164;5.802;2023-12-22T02:15:38;100054.81;;;4.70;100.00
52535;BME280;38443;53.164;5.802;2023-12-22T02:18:14;100055.53;;;4.79;100.00
52535;BME280;38443;53.164;5.802;2023-12-22T02:20:42;100087.16;;;4.89;100.00
52535;BME280;38443;53.164;5.802;2023-12-22T02:23:09;100064.91;;;4.97;100.00
52535;BME280;38443;53.164;5.802;2023-12-22T02:25:34;100075.56;;;4.94;100.00
52535;BME280;38443;53.164;5.802;2023-12-22T02:28:08;100078.34;;;4.88;100.00
52535;BME280;38443;53.164;5.802;2023-12-22T02:30:43;100092.56;;;4.84;100.00
52535;BME280;38443;53.164;5.802;2023-12-22T02:33:15;100079.38;;;4.79;100.00
52535;BME280;38443;53.164;5.802;2023-12-22T02:35:42;100066.16;;;4.76;100.00
52535;BME280;38443;53.164;5.802;2023-12-22T02:38:11;100071.69;;;4.64;100.00
52535;BME280;38443;53.164;5.802;2023-12-22T02:40:37;100086.91;;;4.53;100.00
52535;BME280;38443;53.164;5.802;2023-12-22T02:43:02;100074.75;;;4.41;100.00
52535;BME280;38443;53.164;5.802;2023-12-22T02:45:28;100086.38;;;4.31;100.00
52535;BME280;38443;53.164;5.802;2023-12-22T02:47:55;100106.81;;;4.23;100.00
52535;BME280;38443;53.164;5.802;2023-12-22T02:50:20;100106.03;;;4.17;100.00
52535;BME280;38443;53.164;5.802;2023-12-22T02:52:46;100113.13;;;4.14;100.00
52535;BME280;38443;53.164;5.802;2023-12-22T02:55:11;100122.84;;;4.13;100.00
52535;BME280;38443;53.164;5.802;2023-12-22T02:57:36;100114.94;;;4.10;100.00
52535;BME280;38443;53.164;5.802;2023-12-22T03:00:01;100113.16;;;4.12;100.00
52535;BME280;38443;53.164;5.802;2023-12-22T03:02:27;100128.06;;;4.18;100.00
52535;BME280;38443;53.164;5.802;2023-12-22T03:04:52;100120.81;;;4.31;100.00
52535;BME280;38443;53.164;5.802;2023-12-22T03:07:17;100102.13;;;4.42;100.00
52535;BME280;38443;53.164;5.802;2023-12-22T03:09:43;100089.63;;;4.48;100.00
52535;BME280;38443;53.164;5.802;2023-12-22T03:12:09;100086.00;;;4.55;100.00
52535;BME280;38443;53.164;5.802;2023-12-22T03:14:35;100094.75;;;4.59;100.00
52535;BME280;38443;53.164;5.802;2023-12-22T03:17:01;100086.78;;;4.59;100.00
52535;BME280;38443;53.164;5.802;2023-12-22T03:19:27;100083.22;;;4.62;100.00
52535;BME280;38443;53.164;5.802;2023-12-22T03:21:52;100070.84;;;4.62;100.00
52535;BME280;38443;53.164;5.802;2023-12-22T03:24:18;100076.03;;;4.70;100.00
52535;BME280;38443;53.164;5.802;2023-12-22T03:26:45;100069.59;;;4.83;100.00
52535;BME280;38443;53.164;5.802;2023-12-22T03:29:10;100063.28;;;4.89;100.00
52535;BME280;38443;53.164;5.802;2023-12-22T03:31:35;100064.19;;;4.89;100.00
52535;BME280;38443;53.164;5.802;2023-12-22T03:34:01;100064.19;;;4.89;100.00
52535;BME280;38443;53.164;5.802;2023-12-22T03:36:26;100054.47;;;4.88;100.00
52535;BME280;38443;53.164;5.802;2023-12-22T03:38:53;100046.47;;;4.91;100.00
52535;BME280;38443;53.164;5.802;2023-12-22T03:41:18;100049.03;;;4.96;100.00
52535;BME280;38443;53.164;5.802;2023-12-22T03:43:44;100056.06;;;4.97;100.00
52535;BME280;38443;53.164;5.802;2023-12-22T03:46:09;100058.81;;;4.92;100.00
52535;BME280;38443;53.164;5.802;2023-12-22T03:48:34;100073.84;;;4.93;100.00
52535;BME280;38443;53.164;5.802;2023-12-22T03:50:59;100045.44;;;4.98;100.00
52535;BME280;38443;53.164;5.802;2023-12-22T03:53:24;100049.72;;;5.06;100.00
52535;BME280;38443;53.164;5.802;2023-12-22T03:55:50;100061.22;;;5.05;100.00
52535;BME280;38443;53.164;5.802;2023-12-22T03:58:15;100060.47;;;4.99;100.00
52535;BME280;38443;53.164;5.802;2023-12-22T04:00:40;100069.31;;;4.97;100.00
52535;BME280;38443;53.164;5.802;2023-12-22T04:03:05;100067.50;;;5.00;100.00
52535;BME280;38443;53.164;5.802;2023-12-22T04:05:31;100075.38;;;5.05;100.00
52535;BME280;38443;53.164;5.802;2023-12-22T04:07:56;100088.59;;;5.07;100.00
52535;BME280;38443;53.164;5.802;2023-12-22T04:10:21;100085.09;;;5.05;100.00
52535;BME280;38443;53.164;5.802;2023-12-22T04:12:47;100101.84;;;5.07;100.00
52535;BME280;38443;53.164;5.802;2023-12-22T04:15:12;100088.53;;;5.11;100.00
52535;BME280;38443;53.164;5.802;2023-12-22T04:17:38;100087.59;;;5.14;100.00
52535;BME280;38443;53.164;5.802;2023-12-22T04:20:04;100108.59;;;5.23;100.00
52535;BME280;38443;53.164;5.802;2023-12-22T04:22:29;100108.69;;;5.20;100.00
52535;BME280;38443;53.164;5.802;2023-12-22T04:24:54;100108.72;;;5.17;100.00
52535;BME280;38443;53.164;5.802;2023-12-22T04:27:20;100105.31;;;5.12;100.00
52535;BME280;38443;53.164;5.802;2023-12-22T04:29:45;100122.91;;;5.16;100.00
52535;BME280;38443;53.164;5.802;2023-12-22T04:32:10;100115.84;;;5.15;100.00
52535;BME280;38443;53.164;5.802;2023-12-22T04:34:35;100120.25;;;5.16;100.00
52535;BME280;38443;53.164;5.802;2023-12-22T04:37:01;100120.25;;;5.17;100.00
52535;BME280;38443;53.164;5.802;2023-12-22T04:39:26;100122.06;;;5.14;100.00
52535;BME280;38443;53.164;5.802;2023-12-22T04:41:51;100108.78;;;5.15;100.00
52535;BME280;38443;53.164;5.802;2023-12-22T04:44:17;100107.03;;;5.13;100.00
52535;BME280;38443;53.164;5.802;2023-12-22T04:46:42;100114.28;;;5.05;100.00
52535;BME280;38443;53.164;5.802;2023-12-22T04:49:07;100121.22;;;5.12;100.00
52535;BME280;38443;53.164;5.802;2023-12-22T04:51:32;100131.63;;;5.23;100.00
52535;BME280;38443;53.164;5.802;2023-12-22T04:53:57;100133.38;;;5.24;100.00
52535;BME280;38443;53.164;5.802;2023-12-22T04:56:23;100131.63;;;5.23;100.00
52535;BME280;38443;53.164;5.802;2023-12-22T04:58:48;100135.13;;;5.23;100.00
52535;BME280;38443;53.164;5.802;2023-12-22T05:01:14;100127.22;;;5.22;100.00
52535;BME280;38443;53.164;5.802;2023-12-22T05:03:39;100107.72;;;5.24;100.00
52535;BME280;38443;53.164;5.802;2023-12-22T05:06:04;100127.09;;;5.29;100.00
52535;BME280;38443;53.164;5.802;2023-12-22T05:08:29;100125.31;;;5.30;100.00
52535;BME280;38443;53.164;5.802;2023-12-22T05:10:55;100114.66;;;5.31;100.00
52535;BME280;38443;53.164;5.802;2023-12-22T05:13:20;100124.38;;;5.31;100.00
52535;BME280;38443;53.164;5.802;2023-12-22T05:15:45;100130.63;;;5.28;100.00
52535;BME280;38443;53.164;5.802;2023-12-22T05:18:10;100137.72;;;5.28;100.00
52535;BME280;38443;53.164;5.802;2023-12-22T05:20:36;100143.91;;;5.28;100.00
52535;BME280;38443;53.164;5.802;2023-12-22T05:23:01;100135.13;;;5.23;100.00
52535;BME280;38443;53.164;5.802;2023-12-22T05:25:27;100137.88;;;5.18;100.00
52535;BME280;38443;53.164;5.802;2023-12-22T05:27:52;100125.59;;;5.14;100.00
52535;BME280;38443;53.164;5.802;2023-12-22T05:30:17;100139.69;;;5.16;100.00
52535;BME280;38443;53.164;5.802;2023-12-22T05:32:42;100149.41;;;5.17;100.00
52535;BME280;38443;53.164;5.802;2023-12-22T05:35:09;100155.63;;;5.16;100.00
52535;BME280;38443;53.164;5.802;2023-12-22T05:37:35;100153.78;;;5.20;100.00
52535;BME280;38443;53.164;5.802;2023-12-22T05:40:00;100143.09;;;5.23;100.00
52535;BME280;38443;53.164;5.802;2023-12-22T05:42:26;100146.56;;;5.27;100.00
52535;BME280;38443;53.164;5.802;2023-12-22T05:44:51;100146.56;;;5.28;100.00
52535;BME280;38443;53.164;5.802;2023-12-22T05:47:16;100135.06;;;5.29;100.00
52535;BME280;38443;53.164;5.802;2023-12-22T05:49:42;100145.66;;;5.29;100.00
52535;BME280;38443;53.164;5.802;2023-12-22T05:52:07;100151.00;;;5.26;100.00
52535;BME280;38443;53.164;5.802;2023-12-22T05:54:35;100155.50;;;5.23;100.00
52535;BME280;38443;53.164;5.802;2023-12-22T05:57:00;100145.75;;;5.23;100.00
52535;BME280;38443;53.164;5.802;2023-12-22T05:59:25;100144.00;;;5.24;100.00
52535;BME280;38443;53.164;5.802;2023-12-22T06:01:55;100128.13;;;5.20;100.00
52535;BME280;38443;53.164;5.802;2023-12-22T06:04:21;100142.31;;;5.19;100.00
52535;BME280;38443;53.164;5.802;2023-12-22T06:06:46;100144.03;;;5.22;100.00
52535;BME280;38443;53.164;5.802;2023-12-22T06:09:11;100149.28;;;5.25;100.00
52535;BME280;38443;53.164;5.802;2023-12-22T06:11:38;100161.59;;;5.29;100.00
52535;BME280;38443;53.164;5.802;2023-12-22T06:14:05;100149.09;;;5.34;100.00
52535;BME280;38443;53.164;5.802;2023-12-22T06:16:30;100153.50;;;5.35;100.00
52535;BME280;38443;53.164;5.802;2023-12-22T06:18:56;100167.69;;;5.33;100.00
52535;BME280;38443;53.164;5.802;2023-12-22T06:21:21;100165.97;;;5.30;100.00
52535;BME280;38443;53.164;5.802;2023-12-22T06:23:47;100166.84;;;5.31;100.00
52535;BME280;38443;53.164;5.802;2023-12-22T06:26:12;100165.94;;;5.32;100.00
52535;BME280;38443;53.164;5.802;2023-12-22T06:28:38;100165.00;;;5.34;100.00
52535;BME280;38443;53.164;5.802;2023-12-22T06:31:08;100161.50;;;5.34;100.00
52535;BME280;38443;53.164;5.802;2023-12-22T06:33:34;100157.91;;;5.36;100.00
52535;BME280;38443;53.164;5.802;2023-12-22T06:35:59;100154.34;;;5.37;100.00
52535;BME280;38443;53.164;5.802;2023-12-22T06:38:24;100159.69;;;5.36;100.00
52535;BME280;38443;53.164;5.802;2023-12-22T06:40:49;100148.22;;;5.34;100.00
52535;BME280;38443;53.164;5.802;2023-12-22T06:43:15;100149.22;;;5.28;100.00
52535;BME280;38443;53.164;5.802;2023-12-22T06:45:41;100155.50;;;5.23;100.00
52535;BME280;38443;53.164;5.802;2023-12-22T06:48:07;100155.50;;;5.23;100.00
52535;BME280;38443;53.164;5.802;2023-12-22T06:50:32;100167.03;;;5.22;100.00
52535;BME280;38443;53.164;5.802;2023-12-22T06:52:57;100170.56;;;5.22;100.00
52535;BME280;38443;53.164;5.802;2023-12-22T06:55:23;100170.53;;;5.24;100.00
52535;BME280;38443;53.164;5.802;2023-12-22T06:57:48;100190.84;;;5.23;100.00
52535;BME280;38443;53.164;5.802;2023-12-22T07:00:14;100205.00;;;5.25;100.00
52535;BME280;38443;53.164;5.802;2023-12-22T07:02:40;100196.16;;;5.23;100.00
52535;BME280;38443;53.164;5.802;2023-12-22T07:07:33;100175.81;;;5.25;100.00
52535;BME280;38443;53.164;5.802;2023-12-22T07:09:58;100189.06;;;5.25;100.00
52535;BME280;38443;53.164;5.802;2023-12-22T07:12:23;100203.22;;;5.24;100.00
52535;BME280;38443;53.164;5.802;2023-12-22T07:14:49;100219.13;;;5.26;100.00
52535;BME280;38443;53.164;5.802;2023-12-22T07:17:14;100233.28;;;5.25;100.00
52535;BME280;38443;53.164;5.802;2023-12-22T07:19:39;100236.78;;;5.27;100.00
52535;BME280;38443;53.164;5.802;2023-12-22T07:22:04;100224.44;;;5.26;100.00
52535;BME280;38443;53.164;5.802;2023-12-22T07:24:30;100217.38;;;5.25;100.00
52535;BME280;38443;53.164;5.802;2023-12-22T07:26:55;100207.66;;;5.24;100.00
52535;BME280;38443;53.164;5.802;2023-12-22T07:29:20;100243.84;;;5.29;100.00
52535;BME280;38443;53.164;5.802;2023-12-22T07:31:46;100257.06;;;5.31;100.00
52535;BME280;38443;53.164;5.802;2023-12-22T07:34:11;100252.56;;;5.34;100.00
52535;BME280;38443;53.164;5.802;2023-12-22T07:36:36;100267.53;;;5.38;100.00
52535;BME280;38443;53.164;5.802;2023-12-22T07:39:02;100275.50;;;5.38;100.00
52535;BME280;38443;53.164;5.802;2023-12-22T07:41:27;100263.09;;;5.39;100.00
52535;BME280;38443;53.164;5.802;2023-12-22T07:43:52;100271.16;;;5.34;100.00
52535;BME280;38443;53.164;5.802;2023-12-22T07:46:21;100262.31;;;5.34;100.00
52535;BME280;38443;53.164;5.802;2023-12-22T07:48:47;100265.00;;;5.32;100.00
52535;BME280;38443;53.164;5.802;2023-12-22T07:51:12;100277.44;;;5.29;100.00
52535;BME280;38443;53.164;5.802;2023-12-22T07:53:38;100279.19;;;5.30;100.00
52535;BME280;38443;53.164;5.802;2023-12-22T07:56:03;100261.59;;;5.26;100.00
52535;BME280;38443;53.164;5.802;2023-12-22T07:58:31;100278.47;;;5.22;100.00
52535;BME280;38443;53.164;5.802;2023-12-22T08:00:57;100274.97;;;5.18;100.00
52535;BME280;38443;53.164;5.802;2023-12-22T08:03:22;100272.34;;;5.16;100.00
52535;BME280;38443;53.164;5.802;2023-12-22T08:05:47;100265.34;;;5.11;100.00
52535;BME280;38443;53.164;5.802;2023-12-22T08:08:13;100277.00;;;5.00;100.00
52535;BME280;38443;53.164;5.802;2023-12-22T08:10:38;100277.16;;;4.91;100.00
52535;BME280;38443;53.164;5.802;2023-12-22T08:13:03;100286.97;;;4.86;100.00
52535;BME280;38443;53.164;5.802;2023-12-22T08:15:29;100265.81;;;4.82;100.00
52535;BME280;38443;53.164;5.802;2023-12-22T08:17:54;100255.25;;;4.77;100.00
52535;BME280;38443;53.164;5.802;2023-12-22T08:20:19;100254.50;;;4.70;100.00
52535;BME280;38443;53.164;5.802;2023-12-22T08:22:49;100245.66;;;4.71;100.00
52535;BME280;38443;53.164;5.802;2023-12-22T08:25:15;100243.03;;;4.70;100.00
52535;BME280;38443;53.164;5.802;2023-12-22T08:27:41;100206.78;;;4.69;100.00
52535;BME280;38443;53.164;5.802;2023-12-22T08:30:10;100209.44;;;4.69;100.00
52535;BME280;38443;53.164;5.802;2023-12-22T08:32:36;100211.19;;;4.71;100.00
52535;BME280;38443;53.164;5.802;2023-12-22T08:35:01;100222.69;;;4.70;100.00
52535;BME280;38443;53.164;5.802;2023-12-22T08:37:28;100236.78;;;4.72;100.00
52535;BME280;38443;53.164;5.802;2023-12-22T08:39:53;100242.94;;;4.74;100.00
52535;BME280;38443;53.164;5.802;2023-12-22T08:42:18;100242.00;;;4.78;100.00
52535;BME280;38443;53.164;5.802;2023-12-22T08:44:44;100245.47;;;4.82;100.00
52535;BME280;38443;53.164;5.802;2023-12-22T08:47:09;100246.34;;;4.84;100.00
52535;BME280;38443;53.164;5.802;2023-12-22T08:49:34;100255.19;;;4.83;100.00
52535;BME280;38443;53.164;5.802;2023-12-22T08:52:00;100259.66;;;4.79;100.00
52535;BME280;38443;53.164;5.802;2023-12-22T08:54:26;100265.00;;;4.75;100.00
52535;BME280;38443;53.164;5.802;2023-12-22T08:56:52;100261.50;;;4.73;100.00
52535;BME280;38443;53.164;5.802;2023-12-22T08:59:17;100265.09;;;4.72;100.00
52535;BME280;38443;53.164;5.802;2023-12-22T09:01:43;100265.00;;;4.75;100.00
52535;BME280;38443;53.164;5.802;2023-12-22T09:04:09;100269.41;;;4.77;100.00
52535;BME280;38443;53.164;5.802;2023-12-22T09:06:35;100274.66;;;4.80;100.00
52535;BME280;38443;53.164;5.802;2023-12-22T09:09:00;100276.41;;;4.83;100.00
52535;BME280;38443;53.164;5.802;2023-12-22T09:11:25;100274.56;;;4.88;100.00
52535;BME280;38443;53.164;5.802;2023-12-22T09:13:51;100270.97;;;4.91;100.00
52535;BME280;38443;53.164;5.802;2023-12-22T09:16:21;100266.47;;;4.97;100.00
52535;BME280;38443;53.164;5.802;2023-12-22T09:18:46;100278.72;;;5.05;100.00
52535;BME280;38443;53.164;5.802;2023-12-22T09:21:12;100292.78;;;5.10;100.00
52535;BME280;38443;53.164;5.802;2023-12-22T09:23:37;100279.47;;;5.13;100.00
52535;BME280;38443;53.164;5.802;2023-12-22T09:26:02;100287.38;;;5.16;100.00
52535;BME280;38443;53.164;5.802;2023-12-22T09:28:29;100295.25;;;5.20;100.00
52535;BME280;38443;53.164;5.802;2023-12-22T09:30:55;100295.22;;;5.24;100.00
52535;BME280;38443;53.164;5.802;2023-12-22T09:33:20;100299.59;;;5.26;100.00
52535;BME280;38443;53.164;5.802;2023-12-22T09:35:45;100296.94;;;5.28;100.00
52535;BME280;38443;53.164;5.802;2023-12-22T09:38:11;100296.00;;;5.29;100.00
52535;BME280;38443;53.164;5.802;2023-12-22T09:40:37;100296.84;;;5.31;100.00
52535;BME280;38443;53.164;5.802;2023-12-22T09:43:05;100287.06;;;5.34;100.00
52535;BME280;38443;53.164;5.802;2023-12-22T09:45:32;100284.41;;;5.36;100.00
52535;BME280;38443;53.164;5.802;2023-12-22T09:47:59;100293.19;;;5.39;100.00
52535;BME280;38443;53.164;5.802;2023-12-22T09:50:24;100292.25;;;5.42;100.00
52535;BME280;38443;53.164;5.802;2023-12-22T09:52:51;100293.97;;;5.45;100.00
52535;BME280;38443;53.164;5.802;2023-12-22T09:55:16;100305.41;;;5.50;100.00
52535;BME280;38443;53.164;5.802;2023-12-22T09:57:42;100293.00;;;5.50;100.00
52535;BME280;38443;53.164;5.802;2023-12-22T10:00:10;100311.53;;;5.53;100.00
52535;BME280;38443;53.164;5.802;2023-12-22T10:02:38;100312.41;;;5.54;100.00
52535;BME280;38443;53.164;5.802;2023-12-22T10:05:04;100315.91;;;5.56;100.00
52535;BME280;38443;53.164;5.802;2023-12-22T10:07:32;100325.56;;;5.60;100.00
52535;BME280;38443;53.164;5.802;2023-12-22T10:09:59;100311.34;;;5.63;100.00
52535;BME280;38443;53.164;5.802;2023-12-22T10:12:26;100310.47;;;5.64;100.00
52535;BME280;38443;53.164;5.802;2023-12-22T10:14:53;100316.63;;;5.66;100.00
52535;BME280;38443;53.164;5.802;2023-12-22T10:17:19;100303.34;;;5.66;100.00
52535;BME280;38443;53.164;5.802;2023-12-22T10:19:44;100294.47;;;5.67;100.00
52535;BME280;38443;53.164;5.802;2023-12-22T10:22:09;100298.00;;;5.67;100.00
52535;BME280;38443;53.164;5.802;2023-12-22T10:24:38;100312.09;;;5.71;100.00
52535;BME280;38443;53.164;5.802;2023-12-22T10:27:04;100305.03;;;5.71;100.00
52535;BME280;38443;53.164;5.802;2023-12-22T10:29:30;100306.78;;;5.72;100.00
52535;BME280;38443;53.164;5.802;2023-12-22T10:31:55;100320.88;;;5.74;100.00
52535;BME280;38443;53.164;5.802;2023-12-22T10:34:21;100314.63;;;5.77;100.00
52535;BME280;38443;53.164;5.802;2023-12-22T10:36:46;100324.38;;;5.78;100.00
52535;BME280;38443;53.164;5.802;2023-12-22T10:39:12;100308.47;;;5.76;100.00
52535;BME280;38443;53.164;5.802;2023-12-22T10:41:37;100308.47;;;5.76;100.00
52535;BME280;38443;53.164;5.802;2023-12-22T10:44:03;100315.53;;;5.77;100.00
52535;BME280;38443;53.164;5.802;2023-12-22T10:46:30;100321.69;;;5.79;100.00
52535;BME280;38443;53.164;5.802;2023-12-22T10:48:56;100338.47;;;5.82;100.00
52535;BME280;38443;53.164;5.802;2023-12-22T10:51:21;100334.00;;;5.84;100.00
52535;BME280;38443;53.164;5.802;2023-12-22T10:53:46;100334.81;;;5.87;100.00
52535;BME280;38443;53.164;5.802;2023-12-22T10:56:11;100337.41;;;5.92;100.00
52535;BME280;38443;53.164;5.802;2023-12-22T10:58:37;100347.09;;;5.94;100.00
52535;BME280;38443;53.164;5.802;2023-12-22T11:01:06;100335.56;;;5.97;100.00
52535;BME280;38443;53.164;5.802;2023-12-22T11:03:33;100345.22;;;6.01;100.00
52535;BME280;38443;53.164;5.802;2023-12-22T11:06:02;100341.66;;;6.02;100.00
52535;BME280;38443;53.164;5.802;2023-12-22T11:08:29;100332.75;;;6.05;100.00
52535;BME280;38443;53.164;5.802;2023-12-22T11:10:58;100340.69;;;6.08;100.00
52535;BME280;38443;53.164;5.802;2023-12-22T11:13:29;100333.59;;;6.08;100.00
52535;BME280;38443;53.164;5.802;2023-12-22T11:15:55;100318.50;;;6.10;100.00
52535;BME280;38443;53.164;5.802;2023-12-22T11:18:21;100317.56;;;6.11;100.00
52535;BME280;38443;53.164;5.802;2023-12-22T11:20:48;100318.44;;;6.13;100.00
52535;BME280;38443;53.164;5.802;2023-12-22T11:23:14;100324.66;;;6.12;100.00
52535;BME280;38443;53.164;5.802;2023-12-22T11:25:41;100325.50;;;6.14;100.00
52535;BME280;38443;53.164;5.802;2023-12-22T11:28:08;100305.06;;;6.16;100.00
52535;BME280;38443;53.164;5.802;2023-12-22T11:30:36;100287.41;;;6.15;100.00
52535;BME280;38443;53.164;5.802;2023-12-22T11:33:02;100274.13;;;6.15;100.00
52535;BME280;38443;53.164;5.802;2023-12-22T11:35:29;100278.59;;;6.13;100.00
52535;BME280;38443;53.164;5.802;2023-12-22T11:37:54;100274.13;;;6.14;100.00
52535;BME280;38443;53.164;5.802;2023-12-22T11:40:21;100283.91;;;6.13;100.00
52535;BME280;38443;53.164;5.802;2023-12-22T11:42:49;100272.38;;;6.13;100.00
52535;BME280;38443;53.164;5.802;2023-12-22T11:45:17;100262.66;;;6.12;100.00
52535;BME280;38443;53.164;5.802;2023-12-22T11:47:42;100263.53;;;6.12;100.00
52535;BME280;38443;53.164;5.802;2023-12-22T11:50:08;100242.28;;;6.12;100.00
52535;BME280;38443;53.164;5.802;2023-12-22T11:52:34;100234.31;;;6.12;100.00
52535;BME280;38443;53.164;5.802;2023-12-22T11:55:00;100236.09;;;6.12;100.00
52535;BME280;38443;53.164;5.802;2023-12-22T12:00:06;100240.50;;;6.13;100.00
52535;BME280;38443;53.164;5.802;2023-12-22T12:02:36;100246.72;;;6.12;100.00
52535;BME280;38443;53.164;5.802;2023-12-22T12:05:03;100245.81;;;6.11;100.00
52535;BME280;38443;53.164;5.802;2023-12-22T12:07:45;100234.34;;;6.09;100.00
52535;BME280;38443;53.164;5.802;2023-12-22T12:13:11;100228.16;;;6.10;100.00
52535;BME280;38443;53.164;5.802;2023-12-22T12:15:41;100220.16;;;6.12;100.00
52535;BME280;38443;53.164;5.802;2023-12-22T12:18:06;100212.16;;;6.13;100.00
52535;BME280;38443;53.164;5.802;2023-12-22T12:20:32;100216.66;;;6.10;100.00
52535;BME280;38443;53.164;5.802;2023-12-22T12:22:58;100218.41;;;6.09;100.00
52535;BME280;38443;53.164;5.802;2023-12-22T12:25:26;100230.84;;;6.07;100.00
52535;BME280;38443;53.164;5.802;2023-12-22T12:28:06;100233.56;;;6.06;100.00
52535;BME280;38443;53.164;5.802;2023-12-22T12:30:32;100232.75;;;6.02;100.00
52535;BME280;38443;53.164;5.802;2023-12-22T12:32:59;100230.13;;;6.01;100.00
52535;BME280;38443;53.164;5.802;2023-12-22T12:35:31;100231.00;;;6.01;100.00
52535;BME280;38443;53.164;5.802;2023-12-22T12:37:57;100214.22;;;5.99;100.00
52535;BME280;38443;53.164;5.802;2023-12-22T12:40:23;100204.53;;;5.96;100.00
52535;BME280;38443;53.164;5.802;2023-12-22T12:42:49;100218.69;;;5.97;100.00
52535;BME280;38443;53.164;5.802;2023-12-22T12:45:21;100223.13;;;5.96;100.00
52535;BME280;38443;53.164;5.802;2023-12-22T12:48:00;100245.25;;;5.97;100.00
52535;BME280;38443;53.164;5.802;2023-12-22T12:50:26;100263.84;;;5.97;100.00
52535;BME280;38443;53.164;5.802;2023-12-22T12:52:54;100267.41;;;5.96;100.00